createdAt,value
2019-02-24T00:01:07.345Z,40.46
2019-02-24T00:02:13.524Z,40.29
2019-02-24T00:03:20.748Z,38.56
2019-02-24T00:04:26.939Z,38.57
2019-02-24T00:05:34.113Z,40.01
2019-02-24T00:06:41.074Z,41.08
2019-02-24T00:07:46.943Z,40.89
2019-02-24T00:08:54.121Z,38.74
2019-02-24T00:10:01.003Z,38.19
2019-02-24T00:11:07.324Z,39.61
2019-02-24T00:12:13.664Z,41.17
2019-02-24T00:13:20.415Z,41.62
2019-02-24T00:14:26.569Z,38.68
2019-02-24T00:15:33.155Z,38.72
2019-02-24T00:16:40.953Z,40.39
2019-02-24T00:17:48.261Z,40.31
2019-02-24T00:18:54.154Z,38.94
2019-02-24T00:20:00.799Z,38.53
2019-02-24T00:21:08.783Z,39.26
2019-02-24T00:22:16.833Z,41.43
2019-02-24T00:23:23.514Z,40.83
2019-02-24T00:24:30.244Z,38.45
2019-02-24T00:25:36.796Z,38.25
2019-02-24T00:26:43.545Z,39.59
2019-02-24T00:27:51.579Z,39.87
2019-02-24T00:28:57.542Z,39.70
2019-02-24T00:30:04.452Z,38.55
2019-02-24T00:31:11.142Z,38.33
2019-02-24T00:32:17.015Z,39.82
2019-02-24T00:33:23.897Z,40.65
2019-02-24T00:34:30.885Z,38.59
2019-02-24T00:35:38.800Z,37.60
2019-02-24T00:36:46.371Z,38.74
2019-02-24T00:37:52.770Z,39.83
2019-02-24T00:38:59.436Z,40.51
2019-02-24T00:40:07.715Z,39.15
2019-02-24T00:41:15.145Z,37.70
2019-02-24T00:42:21.713Z,38.92
2019-02-24T00:43:28.543Z,40.10
2019-02-24T00:44:35.649Z,39.69
2019-02-24T00:45:41.949Z,37.62
2019-02-24T00:46:48.428Z,37.88
2019-02-24T00:47:54.860Z,40.06
2019-02-24T00:49:02.331Z,40.09
2019-02-24T00:50:10.934Z,38.37
2019-02-24T00:51:18.360Z,37.77
2019-02-24T00:52:25.217Z,39.14
2019-02-24T00:53:31.971Z,40.61
2019-02-24T00:54:38.636Z,39.89
2019-02-24T00:55:46.446Z,38.01
2019-02-24T00:56:53.009Z,37.54
2019-02-24T00:57:59.468Z,39.52
2019-02-24T00:59:07.899Z,40.17
2019-02-24T01:00:15.850Z,38.28
2019-02-24T01:01:21.753Z,38.11
2019-02-24T01:02:29.790Z,38.80
2019-02-24T01:03:37.216Z,40.10
2019-02-24T01:04:43.269Z,39.99
2019-02-24T01:05:49.717Z,38.30
2019-02-24T01:06:56.736Z,37.53
2019-02-24T01:08:02.566Z,38.31
2019-02-24T01:09:09.406Z,40.43
2019-02-24T01:10:17.085Z,39.90
2019-02-24T01:11:23.205Z,38.37
2019-02-24T01:12:30.773Z,37.48
2019-02-24T01:13:39.576Z,39.37
2019-02-24T01:14:46.342Z,40.12
2019-02-24T01:15:52.340Z,40.04
2019-02-24T01:16:59.475Z,39.52
2019-02-24T01:18:06.484Z,40.67
2019-02-24T01:19:13.094Z,41.48
2019-02-24T01:20:19.634Z,41.11
2019-02-24T01:21:25.784Z,41.45
2019-02-24T01:22:32.836Z,39.79
2019-02-24T01:23:39.939Z,39.47
2019-02-24T01:24:45.880Z,42.24
2019-02-24T01:25:52.959Z,42.78
2019-02-24T01:26:59.832Z,41.67
2019-02-24T01:28:06.022Z,39.69
2019-02-24T01:29:12.806Z,40.06
2019-02-24T01:30:19.560Z,41.58
2019-02-24T01:31:25.664Z,41.29
2019-02-24T01:32:32.845Z,40.79
2019-02-24T01:33:39.285Z,39.01
2019-02-24T01:34:45.454Z,39.55
2019-02-24T01:35:52.137Z,41.87
2019-02-24T01:37:02.961Z,42.71
2019-02-24T01:38:09.380Z,40.28
2019-02-24T01:39:15.662Z,39.14
2019-02-24T01:40:22.558Z,40.20
2019-02-24T01:41:29.500Z,42.32
2019-02-24T01:42:35.971Z,43.53
2019-02-24T01:43:42.987Z,43.64
2019-02-24T01:44:49.961Z,43.92
2019-02-24T01:45:56.919Z,43.06
2019-02-24T01:47:04.175Z,44.55
2019-02-24T01:48:12.015Z,44.75
2019-02-24T01:49:18.886Z,44.61
2019-02-24T01:50:37.756Z,43.75
2019-02-24T01:51:46.004Z,43.84
2019-02-24T01:52:53.057Z,45.01
2019-02-24T01:53:58.970Z,44.72
2019-02-24T01:55:05.643Z,44.16
2019-02-24T01:56:12.852Z,43.95
2019-02-24T01:57:19.577Z,44.85
2019-02-24T01:58:34.596Z,45.79
2019-02-24T01:59:34.768Z,45.26
2019-02-24T02:00:41.296Z,43.31
2019-02-24T02:01:48.529Z,45.24
2019-02-24T02:02:55.464Z,45.85
2019-02-24T02:04:01.279Z,44.99
2019-02-24T02:05:09.211Z,42.83
2019-02-24T02:06:16.970Z,43.35
2019-02-24T02:07:23.015Z,45.66
2019-02-24T02:08:29.599Z,46.67
2019-02-24T02:09:36.430Z,45.57
2019-02-24T02:10:44.170Z,44.30
2019-02-24T02:11:51.862Z,45.45
2019-02-24T02:12:58.646Z,46.77
2019-02-24T02:14:04.904Z,46.92
2019-02-24T02:15:11.929Z,44.89
2019-02-24T02:16:19.217Z,44.01
2019-02-24T02:17:25.330Z,45.74
2019-02-24T02:18:32.237Z,46.42
2019-02-24T02:19:38.626Z,45.23
2019-02-24T02:20:44.405Z,43.29
2019-02-24T02:21:51.676Z,44.09
2019-02-24T02:22:59.060Z,45.30
2019-02-24T02:24:04.819Z,45.53
2019-02-24T02:25:11.136Z,43.99
2019-02-24T02:26:18.276Z,44.39
2019-02-24T02:27:24.145Z,45.53
2019-02-24T02:28:30.865Z,45.69
2019-02-24T02:29:37.683Z,44.81
2019-02-24T02:30:43.726Z,43.82
2019-02-24T02:31:49.938Z,43.52
2019-02-24T02:32:56.544Z,44.81
2019-02-24T02:34:02.304Z,45.76
2019-02-24T02:35:10.503Z,43.45
2019-02-24T02:36:17.526Z,43.27
2019-02-24T02:37:23.425Z,43.63
2019-02-24T02:38:30.087Z,45.39
2019-02-24T02:39:37.002Z,45.24
2019-02-24T02:40:43.414Z,44.38
2019-02-24T02:41:49.885Z,42.73
2019-02-24T02:42:56.990Z,44.14
2019-02-24T02:44:02.661Z,44.96
2019-02-24T02:45:09.982Z,44.32
2019-02-24T02:46:16.588Z,44.14
2019-02-24T02:47:22.735Z,43.61
2019-02-24T02:48:28.817Z,44.87
2019-02-24T02:49:35.647Z,45.01
2019-02-24T02:50:41.622Z,44.15
2019-02-24T02:51:48.153Z,43.32
2019-02-24T02:52:55.118Z,42.96
2019-02-24T02:54:00.788Z,45.58
2019-02-24T02:55:09.631Z,45.13
2019-02-24T02:56:16.212Z,44.52
2019-02-24T02:57:22.290Z,42.83
2019-02-24T02:58:28.704Z,43.60
2019-02-24T02:59:35.673Z,45.58
2019-02-24T03:00:42.710Z,45.83
2019-02-24T03:01:51.061Z,44.42
2019-02-24T03:02:58.220Z,44.03
2019-02-24T03:04:04.664Z,45.32
2019-02-24T03:05:12.121Z,45.54
2019-02-24T03:06:26.360Z,44.53
2019-02-24T03:07:43.409Z,43.55
2019-02-24T03:08:53.601Z,44.22
2019-02-24T03:09:59.662Z,45.87
2019-02-24T03:11:05.991Z,46.00
2019-02-24T03:12:13.935Z,44.37
2019-02-24T03:13:19.623Z,43.05
2019-02-24T03:14:26.246Z,43.17
2019-02-24T03:15:32.928Z,45.03
2019-02-24T03:16:39.058Z,45.71
2019-02-24T03:17:44.969Z,44.22
2019-02-24T03:18:51.857Z,43.39
2019-02-24T03:19:58.156Z,43.50
2019-02-24T03:21:04.680Z,45.05
2019-02-24T03:22:11.433Z,45.49
2019-02-24T03:23:17.260Z,44.45
2019-02-24T03:24:23.612Z,42.92
2019-02-24T03:25:29.860Z,43.61
2019-02-24T03:26:35.998Z,45.03
2019-02-24T03:27:42.487Z,45.64
2019-02-24T03:28:49.691Z,44.28
2019-02-24T03:29:55.986Z,43.61
2019-02-24T03:31:02.467Z,42.74
2019-02-24T03:32:10.024Z,43.93
2019-02-24T03:33:15.939Z,44.80
2019-02-24T03:34:22.729Z,43.90
2019-02-24T03:35:28.989Z,43.51
2019-02-24T03:36:34.737Z,43.05
2019-02-24T03:37:42.142Z,45.78
2019-02-24T03:38:48.265Z,45.57
2019-02-24T03:39:54.057Z,43.17
2019-02-24T03:41:00.749Z,42.00
2019-02-24T03:42:08.668Z,43.31
2019-02-24T03:43:14.919Z,44.86
2019-02-24T03:44:21.966Z,45.01
2019-02-24T03:45:28.473Z,42.78
2019-02-24T03:46:34.776Z,42.21
2019-02-24T03:47:42.370Z,43.77
2019-02-24T03:48:49.129Z,45.24
2019-02-24T03:49:54.861Z,44.83
2019-02-24T03:51:01.576Z,42.66
2019-02-24T03:52:08.412Z,42.80
2019-02-24T03:53:14.293Z,44.52
2019-02-24T03:54:21.396Z,44.97
2019-02-24T03:55:28.596Z,44.58
2019-02-24T03:56:35.662Z,42.89
2019-02-24T03:57:41.719Z,43.05
2019-02-24T03:58:49.139Z,45.92
2019-02-24T03:59:55.278Z,45.25
2019-02-24T04:01:01.898Z,44.22
2019-02-24T04:02:08.159Z,43.00
2019-02-24T04:03:14.158Z,43.27
2019-02-24T04:04:20.307Z,44.74
2019-02-24T04:05:27.670Z,44.98
2019-02-24T04:06:33.599Z,43.05
2019-02-24T04:07:40.793Z,42.02
2019-02-24T04:08:47.577Z,43.83
2019-02-24T04:09:55.436Z,43.79
2019-02-24T04:11:02.214Z,43.69
2019-02-24T04:12:10.445Z,42.02
2019-02-24T04:13:16.377Z,41.89
2019-02-24T04:14:24.008Z,43.44
2019-02-24T04:15:30.565Z,43.75
2019-02-24T04:16:36.890Z,42.20
2019-02-24T04:17:44.949Z,40.54
2019-02-24T04:18:51.852Z,41.42
2019-02-24T04:19:58.705Z,43.96
2019-02-24T04:21:25.188Z,43.34
2019-02-24T04:22:33.462Z,41.31
2019-02-24T04:24:58.792Z,42.64
2019-02-24T04:26:23.632Z,42.69
2019-02-24T04:27:31.029Z,42.40
2019-02-24T04:28:38.301Z,40.42
2019-02-24T04:29:44.489Z,41.99
2019-02-24T04:30:52.210Z,43.00
2019-02-24T04:31:59.258Z,42.67
2019-02-24T04:33:06.052Z,41.04
2019-02-24T04:34:13.647Z,40.50
2019-02-24T04:35:21.275Z,41.98
2019-02-24T04:36:27.163Z,42.73
2019-02-24T04:37:34.218Z,42.03
2019-02-24T04:38:41.739Z,41.39
2019-02-24T04:39:49.801Z,42.26
2019-02-24T04:40:57.112Z,42.19
2019-02-24T04:42:04.375Z,42.47
2019-02-24T04:43:11.302Z,40.55
2019-02-24T04:44:17.671Z,39.93
2019-02-24T04:45:23.886Z,41.40
2019-02-24T04:46:30.635Z,42.20
2019-02-24T04:47:37.424Z,42.08
2019-02-24T04:48:43.874Z,40.11
2019-02-24T04:49:50.829Z,39.56
2019-02-24T04:50:58.169Z,41.02
2019-02-24T04:52:04.704Z,42.10
2019-02-24T04:53:12.103Z,41.88
2019-02-24T04:54:18.921Z,40.76
2019-02-24T04:55:26.766Z,39.43
2019-02-24T04:56:33.596Z,41.07
2019-02-24T04:57:41.228Z,41.05
2019-02-24T04:58:47.234Z,42.25
2019-02-24T04:59:53.814Z,40.52
2019-02-24T05:01:00.920Z,39.01
2019-02-24T05:02:07.655Z,39.87
2019-02-24T05:03:14.316Z,41.83
2019-02-24T05:04:21.255Z,41.64
2019-02-24T05:05:27.124Z,39.69
2019-02-24T05:06:33.504Z,38.72
2019-02-24T05:07:40.030Z,39.70
2019-02-24T05:08:46.532Z,40.44
2019-02-24T05:09:54.589Z,40.82
2019-02-24T05:11:01.649Z,39.47
2019-02-24T05:12:07.529Z,38.60
2019-02-24T05:13:14.661Z,39.95
2019-02-24T05:14:21.040Z,41.66
2019-02-24T05:15:27.071Z,41.16
2019-02-24T05:16:34.717Z,38.92
2019-02-24T05:17:41.325Z,38.94
2019-02-24T05:18:48.550Z,40.79
2019-02-24T05:19:54.965Z,41.07
2019-02-24T05:21:01.444Z,40.21
2019-02-24T05:22:08.111Z,39.05
2019-02-24T05:23:15.719Z,39.18
2019-02-24T05:24:22.867Z,39.96
2019-02-24T05:25:28.812Z,40.46
2019-02-24T05:26:35.001Z,38.65
2019-02-24T05:27:42.159Z,38.39
2019-02-24T05:28:48.496Z,40.42
2019-02-24T05:29:55.439Z,40.20
2019-02-24T05:31:02.004Z,39.43
2019-02-24T05:32:08.256Z,38.25
2019-02-24T05:33:14.953Z,38.49
2019-02-24T05:34:21.287Z,40.21
2019-02-24T05:35:28.777Z,40.13
2019-02-24T05:36:35.275Z,38.12
2019-02-24T05:37:42.444Z,37.22
2019-02-24T05:38:48.540Z,38.05
2019-02-24T05:39:55.424Z,39.57
2019-02-24T05:41:02.909Z,40.05
2019-02-24T05:42:08.968Z,39.68
2019-02-24T05:43:15.759Z,37.67
2019-02-24T05:44:23.055Z,38.69
2019-02-24T05:45:28.816Z,39.86
2019-02-24T05:46:35.661Z,39.73
2019-02-24T05:47:43.246Z,38.50
2019-02-24T05:48:49.410Z,37.59
2019-02-24T05:49:55.653Z,38.98
2019-02-24T05:51:02.753Z,39.00
2019-02-24T05:52:09.005Z,38.93
2019-02-24T05:53:15.822Z,37.95
2019-02-24T05:54:22.505Z,37.76
2019-02-24T05:55:29.348Z,39.13
2019-02-24T05:56:35.510Z,39.16
2019-02-24T05:57:43.093Z,38.35
2019-02-24T05:58:48.971Z,36.62
2019-02-24T05:59:55.771Z,37.66
2019-02-24T06:01:02.494Z,39.43
2019-02-24T06:02:09.026Z,39.24
2019-02-24T06:03:15.108Z,38.03
2019-02-24T06:04:21.656Z,36.67
2019-02-24T06:05:28.988Z,36.93
2019-02-24T06:06:35.974Z,38.88
2019-02-24T06:07:41.866Z,38.89
2019-02-24T06:08:48.702Z,38.70
2019-02-24T06:09:55.195Z,37.70
2019-02-24T06:11:02.153Z,36.86
2019-02-24T06:12:08.946Z,38.57
2019-02-24T06:13:14.784Z,38.60
2019-02-24T06:14:23.511Z,38.07
2019-02-24T06:15:30.572Z,36.48
2019-02-24T06:16:36.535Z,37.37
2019-02-24T06:17:50.154Z,38.25
2019-02-24T06:18:58.086Z,38.23
2019-02-24T06:20:04.746Z,37.33
2019-02-24T06:21:11.273Z,36.70
2019-02-24T06:22:18.522Z,38.11
2019-02-24T06:23:24.610Z,38.97
2019-02-24T06:24:30.506Z,38.55
2019-02-24T06:25:37.044Z,37.00
2019-02-24T06:26:42.988Z,37.03
2019-02-24T06:27:51.176Z,38.57
2019-02-24T06:28:58.789Z,38.84
2019-02-24T06:30:05.842Z,38.01
2019-02-24T06:31:12.350Z,37.25
2019-02-24T06:32:19.101Z,37.94
2019-02-24T06:33:25.012Z,38.74
2019-02-24T06:34:31.693Z,38.39
2019-02-24T06:35:39.037Z,37.42
2019-02-24T06:36:45.524Z,37.98
2019-02-24T06:37:51.844Z,38.80
2019-02-24T06:39:00.494Z,38.28
2019-02-24T06:40:09.582Z,36.97
2019-02-24T06:41:20.684Z,36.61
2019-02-24T06:42:27.114Z,38.64
2019-02-24T06:43:49.473Z,39.37
2019-02-24T06:44:56.212Z,38.48
2019-02-24T06:46:03.621Z,37.16
2019-02-24T06:47:09.829Z,38.22
2019-02-24T06:48:17.616Z,39.31
2019-02-24T06:49:24.511Z,39.57
2019-02-24T06:50:35.338Z,37.89
2019-02-24T06:51:41.101Z,37.06
2019-02-24T06:52:47.935Z,38.22
2019-02-24T06:53:54.150Z,39.18
2019-02-24T06:55:01.378Z,39.71
2019-02-24T06:56:08.626Z,38.15
2019-02-24T06:57:14.727Z,37.21
2019-02-24T06:58:21.445Z,38.22
2019-02-24T06:59:28.265Z,39.45
2019-02-24T07:00:34.368Z,39.11
2019-02-24T07:01:41.610Z,38.22
2019-02-24T07:02:49.061Z,37.13
2019-02-24T07:03:56.175Z,38.66
2019-02-24T07:05:03.605Z,39.39
2019-02-24T07:06:09.805Z,39.38
2019-02-24T07:07:16.888Z,38.20
2019-02-24T07:08:23.202Z,37.08
2019-02-24T07:09:28.971Z,37.55
2019-02-24T07:10:35.464Z,39.00
2019-02-24T07:11:41.244Z,38.83
2019-02-24T07:12:47.128Z,37.82
2019-02-24T07:13:53.685Z,37.05
2019-02-24T07:14:59.797Z,37.95
2019-02-24T07:16:05.778Z,39.37
2019-02-24T07:17:12.336Z,39.19
2019-02-24T07:18:18.774Z,37.54
2019-02-24T07:19:24.639Z,37.24
2019-02-24T07:20:31.525Z,38.28
2019-02-24T07:21:40.186Z,39.39
2019-02-24T07:22:46.576Z,39.97
2019-02-24T07:23:52.906Z,38.53
2019-02-24T07:24:59.773Z,37.89
2019-02-24T07:26:05.413Z,38.00
2019-02-24T07:27:11.937Z,39.41
2019-02-24T07:28:18.622Z,39.36
2019-02-24T07:29:24.453Z,38.36
2019-02-24T07:30:31.811Z,37.80
2019-02-24T07:31:39.052Z,37.93
2019-02-24T07:32:45.031Z,39.75
2019-02-24T07:33:51.788Z,39.89
2019-02-24T07:34:59.346Z,39.10
2019-02-24T07:36:06.908Z,38.29
2019-02-24T07:37:13.666Z,38.82
2019-02-24T07:38:21.016Z,40.77
2019-02-24T07:39:26.814Z,40.34
2019-02-24T07:40:33.374Z,39.49
2019-02-24T07:41:40.095Z,38.52
2019-02-24T07:42:47.301Z,39.17
2019-02-24T07:43:53.341Z,40.72
2019-02-24T07:45:11.823Z,41.03
2019-02-24T07:46:18.414Z,39.35
2019-02-24T07:47:24.723Z,39.17
2019-02-24T07:48:31.978Z,39.42
2019-02-24T07:49:37.845Z,40.38
2019-02-24T07:50:44.640Z,39.81
2019-02-24T07:51:51.431Z,38.82
2019-02-24T07:52:57.344Z,38.93
2019-02-24T07:54:03.659Z,40.50
2019-02-24T07:55:10.428Z,41.61
2019-02-24T07:56:16.390Z,40.30
2019-02-24T07:57:22.580Z,39.10
2019-02-24T07:58:32.060Z,40.10
2019-02-24T07:59:39.195Z,40.82
2019-02-24T08:00:45.177Z,41.72
2019-02-24T08:01:51.857Z,40.40
2019-02-24T08:02:57.818Z,39.65
2019-02-24T08:04:04.600Z,39.31
2019-02-24T08:05:11.288Z,40.43
2019-02-24T08:06:17.511Z,41.37
2019-02-24T08:07:23.664Z,40.35
2019-02-24T08:08:30.670Z,39.79
2019-02-24T08:09:36.472Z,39.18
2019-02-24T08:10:43.998Z,39.91
2019-02-24T08:11:50.635Z,41.14
2019-02-24T08:12:56.604Z,40.70
2019-02-24T08:14:03.215Z,39.57
2019-02-24T08:15:11.215Z,39.48
2019-02-24T08:16:17.469Z,40.67
2019-02-24T08:17:25.067Z,41.46
2019-02-24T08:18:31.902Z,40.56
2019-02-24T08:19:38.041Z,39.60
2019-02-24T08:20:45.034Z,39.66
2019-02-24T08:21:51.495Z,41.29
2019-02-24T08:22:57.502Z,42.22
2019-02-24T08:24:04.329Z,41.45
2019-02-24T08:25:11.498Z,39.75
2019-02-24T08:26:17.501Z,39.36
2019-02-24T08:27:24.068Z,40.39
2019-02-24T08:28:31.704Z,41.98
2019-02-24T08:29:38.082Z,41.78
2019-02-24T08:30:45.122Z,40.74
2019-02-24T08:31:51.631Z,40.20
2019-02-24T08:32:58.305Z,40.49
2019-02-24T08:34:04.385Z,41.90
2019-02-24T08:35:12.037Z,41.66
2019-02-24T08:36:18.177Z,40.40
2019-02-24T08:37:24.527Z,40.02
2019-02-24T08:38:31.504Z,40.20
2019-02-24T08:39:37.617Z,41.83
2019-02-24T08:40:44.157Z,42.36
2019-02-24T08:41:51.554Z,40.63
2019-02-24T08:42:57.345Z,39.78
2019-02-24T08:44:04.177Z,40.14
2019-02-24T08:45:12.425Z,40.70
2019-02-24T08:46:18.431Z,42.58
2019-02-24T08:47:25.662Z,41.70
2019-02-24T08:48:32.605Z,40.47
2019-02-24T08:49:38.750Z,40.56
2019-02-24T08:50:45.295Z,40.79
2019-02-24T08:51:52.893Z,41.60
2019-02-24T08:52:59.384Z,42.48
2019-02-24T08:54:06.827Z,41.10
2019-02-24T08:55:14.326Z,40.41
2019-02-24T08:56:21.726Z,40.42
2019-02-24T08:57:27.940Z,40.31
2019-02-24T08:58:35.238Z,41.53
2019-02-24T08:59:41.112Z,41.13
2019-02-24T09:00:50.972Z,40.36
2019-02-24T09:01:55.922Z,40.70
2019-02-24T09:03:02.295Z,40.41
2019-02-24T09:04:09.075Z,40.50
2019-02-24T09:05:16.749Z,41.37
2019-02-24T09:06:23.605Z,41.48
2019-02-24T09:07:33.773Z,40.73
2019-02-24T09:08:40.902Z,40.49
2019-02-24T09:09:47.010Z,39.82
2019-02-24T09:10:56.818Z,40.46
2019-02-24T09:12:03.186Z,40.36
2019-02-24T09:13:09.592Z,40.70
2019-02-24T09:14:16.708Z,40.98
2019-02-24T09:15:26.138Z,41.42
2019-02-24T09:16:34.790Z,41.45
2019-02-24T09:17:41.882Z,41.87
2019-02-24T09:18:49.097Z,41.45
2019-02-24T09:19:55.139Z,40.31
2019-02-24T09:21:02.703Z,40.78
2019-02-24T09:22:10.231Z,40.77
2019-02-24T09:23:16.682Z,41.18
2019-02-24T09:24:25.008Z,41.77
2019-02-24T09:25:32.921Z,42.11
2019-02-24T09:26:41.681Z,41.40
2019-02-24T09:27:49.633Z,40.82
2019-02-24T09:28:56.352Z,40.88
2019-02-24T09:30:03.316Z,41.28
2019-02-24T09:31:09.673Z,40.86
2019-02-24T09:32:15.859Z,41.24
2019-02-24T09:33:23.551Z,41.28
2019-02-24T09:34:30.974Z,40.82
2019-02-24T09:35:37.678Z,41.05
2019-02-24T09:36:46.739Z,41.31
2019-02-24T09:37:54.657Z,41.16
2019-02-24T09:39:01.574Z,41.01
2019-02-24T09:40:14.581Z,40.97
2019-02-24T09:41:21.301Z,40.79
2019-02-24T09:42:27.294Z,41.07
2019-02-24T09:43:36.320Z,41.72
2019-02-24T09:44:45.460Z,41.61
2019-02-24T09:45:51.493Z,41.36
2019-02-24T09:46:59.734Z,41.59
2019-02-24T09:48:06.033Z,41.35
2019-02-24T09:49:14.375Z,41.20
2019-02-24T09:50:20.996Z,41.13
2019-02-24T09:51:28.693Z,41.34
2019-02-24T09:52:35.560Z,41.27
2019-02-24T09:53:42.708Z,41.24
2019-02-24T09:54:48.786Z,41.88
2019-02-24T09:55:56.605Z,41.54
2019-02-24T09:57:03.666Z,42.13
2019-02-24T09:58:11.011Z,42.26
2019-02-24T09:59:21.947Z,41.71
2019-02-24T10:00:29.516Z,42.15
2019-02-24T10:01:36.355Z,42.73
2019-02-24T10:02:46.067Z,41.97
2019-02-24T10:03:52.886Z,41.86
2019-02-24T10:05:00.473Z,41.88
2019-02-24T10:06:06.973Z,41.96
2019-02-24T10:07:14.435Z,41.64
2019-02-24T10:08:22.896Z,41.86
2019-02-24T10:09:29.553Z,41.76
2019-02-24T10:10:35.974Z,42.00
2019-02-24T10:11:42.813Z,41.56
2019-02-24T10:12:49.273Z,41.57
2019-02-24T10:13:55.983Z,41.26
2019-02-24T10:15:02.873Z,41.32
2019-02-24T10:16:09.654Z,41.21
2019-02-24T10:17:16.716Z,41.48
2019-02-24T10:18:23.467Z,41.04
2019-02-24T10:19:31.188Z,41.64
2019-02-24T10:20:38.664Z,41.12
2019-02-24T10:21:45.629Z,41.32
2019-02-24T10:22:51.581Z,41.15
2019-02-24T10:23:58.141Z,40.99
2019-02-24T10:25:06.009Z,40.77
2019-02-24T10:26:13.487Z,40.25
2019-02-24T10:27:21.341Z,39.92
2019-02-24T10:28:28.781Z,40.26
2019-02-24T10:29:35.855Z,41.09
2019-02-24T10:30:43.049Z,40.31
2019-02-24T10:31:49.841Z,40.67
2019-02-24T10:32:56.441Z,39.66
2019-02-24T10:34:03.581Z,39.82
2019-02-24T10:35:10.181Z,39.34
2019-02-24T10:36:17.564Z,39.33
2019-02-24T10:37:24.917Z,39.97
2019-02-24T10:38:32.021Z,39.21
2019-02-24T10:39:40.080Z,39.72
2019-02-24T10:40:47.251Z,39.61
2019-02-24T10:41:53.763Z,39.26
2019-02-24T10:43:00.719Z,39.68
2019-02-24T10:44:08.044Z,39.71
2019-02-24T10:45:19.531Z,39.32
2019-02-24T10:46:26.471Z,39.52
2019-02-24T10:47:54.131Z,39.11
2019-02-24T10:49:03.356Z,39.06
2019-02-24T10:50:13.599Z,39.39
2019-02-24T10:51:20.840Z,39.42
2019-02-24T10:52:28.301Z,38.84
2019-02-24T10:53:36.243Z,39.43
2019-02-24T10:54:42.532Z,38.87
2019-02-24T10:55:49.952Z,39.40
2019-02-24T10:56:57.347Z,38.97
2019-02-24T10:58:03.888Z,39.29
2019-02-24T10:59:12.167Z,38.65
2019-02-24T11:00:21.757Z,38.98
2019-02-24T11:01:29.895Z,39.36
2019-02-24T11:02:37.225Z,39.25
2019-02-24T11:03:43.781Z,39.33
2019-02-24T11:04:50.720Z,39.56
2019-02-24T11:05:59.179Z,39.33
2019-02-24T11:07:05.465Z,39.33
2019-02-24T11:08:11.585Z,38.91
2019-02-24T11:09:19.114Z,38.83
2019-02-24T11:10:25.327Z,38.54
2019-02-24T11:11:32.265Z,38.39
2019-02-24T11:12:39.491Z,39.32
2019-02-24T11:13:45.613Z,38.52
2019-02-24T11:14:53.945Z,38.63
2019-02-24T11:15:59.833Z,38.93
2019-02-24T11:17:07.092Z,38.66
2019-02-24T11:18:14.174Z,38.65
2019-02-24T11:19:20.212Z,38.43
2019-02-24T11:20:27.646Z,38.93
2019-02-24T11:21:35.633Z,38.15
2019-02-24T11:22:43.526Z,38.00
2019-02-24T11:23:51.376Z,37.49
2019-02-24T11:24:58.605Z,37.99
2019-02-24T11:26:05.525Z,38.86
2019-02-24T11:27:12.302Z,38.24
2019-02-24T11:28:19.305Z,38.39
2019-02-24T11:29:25.665Z,38.20
2019-02-24T11:30:33.018Z,37.86
2019-02-24T11:31:40.794Z,37.47
2019-02-24T11:32:47.166Z,37.86
2019-02-24T11:33:53.992Z,36.76
2019-02-24T11:35:00.446Z,36.56
2019-02-24T11:36:06.766Z,36.56
2019-02-24T11:37:14.185Z,36.33
2019-02-24T11:38:22.047Z,36.63
2019-02-24T11:39:29.565Z,36.43
2019-02-24T11:40:36.493Z,36.24
2019-02-24T11:41:43.652Z,36.20
2019-02-24T11:42:49.904Z,36.83
2019-02-24T11:43:57.077Z,36.94
2019-02-24T11:45:05.557Z,37.40
2019-02-24T11:46:12.233Z,36.92
2019-02-24T11:47:19.992Z,36.79
2019-02-24T11:48:26.742Z,37.40
2019-02-24T11:49:32.620Z,37.30
2019-02-24T11:50:39.534Z,37.42
2019-02-24T11:51:46.169Z,37.55
2019-02-24T11:52:52.461Z,37.96
2019-02-24T11:53:59.669Z,37.71
2019-02-24T11:55:08.419Z,37.58
2019-02-24T11:56:16.604Z,37.28
2019-02-24T11:57:23.332Z,37.88
2019-02-24T11:58:32.437Z,38.36
2019-02-24T11:59:38.566Z,38.40
2019-02-24T12:00:45.364Z,38.43
2019-02-24T12:01:52.977Z,38.84
2019-02-24T12:03:00.055Z,38.94
2019-02-24T12:04:07.063Z,39.08
2019-02-24T12:05:14.503Z,39.10
2019-02-24T12:06:20.890Z,39.16
2019-02-24T12:07:29.051Z,39.15
2019-02-24T12:08:36.500Z,39.03
2019-02-24T12:09:44.180Z,39.32
2019-02-24T12:10:52.808Z,39.24
2019-02-24T12:11:59.725Z,38.99
2019-02-24T12:13:06.718Z,39.60
2019-02-24T12:14:15.351Z,39.59
2019-02-24T12:15:23.011Z,39.77
2019-02-24T12:16:30.859Z,39.55
2019-02-24T12:17:38.401Z,39.40
2019-02-24T12:18:45.297Z,39.29
2019-02-24T12:19:52.353Z,39.44
2019-02-24T12:20:59.432Z,39.45
2019-02-24T12:22:06.473Z,39.70
2019-02-24T12:23:14.980Z,38.75
2019-02-24T12:24:22.348Z,38.90
2019-02-24T12:25:28.901Z,38.63
2019-02-24T12:26:37.760Z,38.30
2019-02-24T12:27:44.113Z,37.54
2019-02-24T12:28:50.754Z,37.87
2019-02-24T12:29:58.905Z,38.09
2019-02-24T12:31:06.104Z,38.39
2019-02-24T12:32:12.992Z,37.81
2019-02-24T12:33:19.604Z,37.85
2019-02-24T12:34:27.304Z,38.05
2019-02-24T12:35:36.830Z,38.16
2019-02-24T12:36:44.050Z,38.55
2019-02-24T12:37:52.022Z,39.45
2019-02-24T12:39:01.331Z,38.72
2019-02-24T12:40:20.309Z,38.90
2019-02-24T12:41:29.163Z,37.56
2019-02-24T12:42:37.991Z,37.18
2019-02-24T12:43:45.756Z,37.62
2019-02-24T12:44:54.192Z,37.41
2019-02-24T12:46:01.464Z,36.74
2019-02-24T12:47:11.004Z,36.90
2019-02-24T12:48:18.871Z,36.65
2019-02-24T12:49:28.944Z,36.33
2019-02-24T12:50:34.860Z,36.67
2019-02-24T12:51:43.560Z,37.09
2019-02-24T12:52:50.162Z,36.76
2019-02-24T12:53:56.927Z,36.10
2019-02-24T12:55:05.886Z,36.18
2019-02-24T12:56:12.147Z,36.57
2019-02-24T12:57:19.387Z,36.39
2019-02-24T12:58:26.760Z,35.81
2019-02-24T12:59:33.048Z,36.39
2019-02-24T13:00:39.940Z,36.65
2019-02-24T13:01:46.699Z,36.16
2019-02-24T13:02:52.963Z,36.06
2019-02-24T13:04:00.567Z,35.82
2019-02-24T13:05:08.283Z,36.23
2019-02-24T13:06:15.553Z,35.21
2019-02-24T13:07:23.011Z,35.09
2019-02-24T13:08:30.872Z,34.15
2019-02-24T13:09:37.025Z,34.31
2019-02-24T13:10:44.706Z,34.66
2019-02-24T13:11:51.632Z,34.15
2019-02-24T13:12:58.007Z,34.29
2019-02-24T13:14:05.164Z,34.86
2019-02-24T13:15:13.516Z,34.21
2019-02-24T13:16:20.144Z,34.50
2019-02-24T13:17:26.883Z,34.19
2019-02-24T13:18:36.914Z,33.62
2019-02-24T13:19:44.509Z,33.99
2019-02-24T13:20:51.621Z,33.69
2019-02-24T13:21:59.301Z,34.21
2019-02-24T13:23:07.721Z,33.36
2019-02-24T13:24:15.081Z,32.82
2019-02-24T13:25:23.410Z,32.40
2019-02-24T13:26:30.496Z,30.18
2019-02-24T13:27:38.639Z,30.28
2019-02-24T13:28:50.492Z,29.73
2019-02-24T13:29:53.881Z,28.89
2019-02-24T13:31:01.102Z,28.56
2019-02-24T13:32:14.899Z,29.61
2019-02-24T13:33:18.768Z,29.14
2019-02-24T13:34:26.978Z,28.56
2019-02-24T13:35:33.816Z,29.70
2019-02-24T13:36:41.016Z,29.09
2019-02-24T13:37:49.877Z,28.94
2019-02-24T13:38:58.803Z,29.55
2019-02-24T13:40:10.483Z,29.16
2019-02-24T13:41:18.212Z,29.39
2019-02-24T13:42:24.892Z,28.66
2019-02-24T13:43:32.100Z,28.84
2019-02-24T13:44:39.778Z,28.68
2019-02-24T13:45:46.659Z,28.44
2019-02-24T13:46:53.932Z,28.78
2019-02-24T13:48:02.220Z,28.06
2019-02-24T13:49:09.210Z,28.61
2019-02-24T13:50:16.497Z,27.64
2019-02-24T13:51:24.781Z,27.48
2019-02-24T13:52:31.799Z,27.86
2019-02-24T13:53:38.904Z,28.31
2019-02-24T13:54:46.288Z,27.94
2019-02-24T13:55:53.000Z,28.38
2019-02-24T13:56:59.999Z,28.66
2019-02-24T13:58:06.849Z,27.79
2019-02-24T13:59:13.589Z,28.40
2019-02-24T14:00:21.922Z,28.21
2019-02-24T14:01:28.821Z,28.01
2019-02-24T14:02:36.001Z,28.58
2019-02-24T14:03:43.310Z,28.31
2019-02-24T14:04:50.770Z,27.84
2019-02-24T14:05:58.467Z,28.11
2019-02-24T14:07:06.300Z,27.94
2019-02-24T14:08:13.552Z,27.95
2019-02-24T14:09:19.861Z,27.64
2019-02-24T14:10:27.352Z,27.91
2019-02-24T14:11:34.743Z,28.07
2019-02-24T14:12:42.211Z,27.93
2019-02-24T14:13:49.504Z,27.97
2019-02-24T14:14:56.871Z,27.75
2019-02-24T14:16:04.867Z,27.03
2019-02-24T14:17:12.183Z,26.62
2019-02-24T14:18:20.129Z,27.15
2019-02-24T14:19:27.035Z,27.61
2019-02-24T14:20:34.435Z,27.45
2019-02-24T14:21:41.877Z,26.51
2019-02-24T14:22:48.369Z,25.73
2019-02-24T14:23:55.917Z,26.58
2019-02-24T14:25:03.890Z,26.12
2019-02-24T14:26:11.409Z,25.88
2019-02-24T14:27:19.008Z,24.35